Terminal Aerodrome Forecast
Issued by NWS Brownsville, TX

Home | Current Version | Previous Version | Text Only | Print | Product List | Glossary On
Versions: 1 2 3 4 5 6 7 8 9 10 11 12 13 14 15 16
000
FTUS44 KBRO 281100
TAFHRL
TAF
KHRL 281122Z 2812/2912 01006KT P6SM BKN015
     FM281600 04012G18KT P6SM VCTS SCT025CB BKN040
      TEMPO 2819/2822 4SM TSRA BKN035CB
     FM290300 12010KT P6SM -RA OVC035=

USA.gov is the U.S. government's official web portal to all federal, state and local government web resources and services.